Terminal Aerodrome Forecast
Issued by NWS

Current Version | Previous Version | Text Only | Print | Product List | Glossary On
Versions: 1 2 3 4 5 6 7 8 9 10 11 12 13 14 15 16 17 18 19 20 21 22 23 24 25 26 27 28 29 30 31 32 33 34
000
FTUS41 KCTP 241548 AAD
TAFJST
TAF AMD
KJST 241548Z 2416/2512 28009G17KT P6SM SCT015 BKN220
     FM241700 27010KT P6SM SCT015 BKN220
     FM250300 26008KT P6SM SCT045 BKN170=

USA.gov is the U.S. government's official web portal to all federal, state and local government web resources and services.